LEVD

Valladolid Airport

Valladolid, Spain
TAF LEVD 231700Z 2318/2418 08007KT CAVOK TX24/2415Z TN08/2406Z PROB40 TEMPO 2318/2321 3000 TS SHRA SCT040CB TEMPO 2414/2418 FEW045CB
Issued Valid From Valid To
Apr-23 @ 17:00 UTC
(6 hours ago)
Apr-23 @ 18:00 UTC
(5 hours ago)
Apr-24 @ 18:00 UTC
(in 19 hours)
Apr-23 @ 18:00 to Apr-24 @ 18:00
TAF LEVD 231700Z 2318/2418 08007KT CAVOK TX24/2415Z TN08/2406Z
Wind Visibility Clouds
80° at 7 knots 10,000+ meters
  • No significant clouds
Expired Click to View Apr-23 @ 18:00 to Apr-23 @ 21:00
PROB40 TEMPO 2318/2321 3000 TS SHRA SCT040CB
Visibility Clouds Conditions
2,993 meters
  • Scattered at 4,000' AGL
  • Thunderstorm
  • Rain
Temporary Apr-24 @ 14:00 to Apr-24 @ 18:00
TEMPO 2414/2418 FEW045CB
Clouds
  • Few at 4,500' AGL
TAF LEVD 231700Z 2318/2418 08007KT CAVOK TX24/2415Z TN08/2406Z PROB40 TEMPO 2318/2321 3000 TS SHRA SCT040CB TEMPO 2414/2418 FEW045CB
Issued Apr-23 @ 17:00 UTC
(6 hours ago)
Valid From Apr-23 @ 18:00 UTC
(5 hours ago)
Valid To Apr-24 @ 18:00 UTC
(in 19 hours)
Apr-23 @ 18:00 - Apr-24 @ 18:00
Wind Visibility
80° at 7 knots 10,000+ meters
Clouds
  • No significant clouds
Apr-23 @ 18:00 - Apr-23 @ 21:00
Clouds
  • Scattered at 4,000' AGL
Conditions
  • Thunderstorm
  • Rain
Temporary Apr-24 @ 14:00 - Apr-24 @ 18:00
Clouds
  • Few at 4,500' AGL